Sanibel, FL

2:23 PM EDT on September 20, 2014 (GMT -0400)
Naples Municipal | Change Station
CLOSE
Current Station
Airport
Location: Naples,
Elevation: 10 ft
Nearby Weather Stations

Elev 10 ft 26.16 °N, 81.77 °W | Updated 5 minutes ago

Rain
Rain
78 °F
Feels Like 78 °F
N
7
Wind Variable Wind from SW

Today
High -- | Low -- °F
--% Chance of Precip.
Yesterday
High -- | Low -- °F
Precip. -- in
7:16 AM 7:27 PM
Waning Crescent, 11% visible
Pressure 29.92 in
Visibility 4.0 miles
Clouds Scattered Clouds 2200 ft
Mostly Cloudy 7500 ft
Overcast 11000 ft
Dew Point 74 °F
Humidity 87%
Rainfall 0.05 in
Snow Depth Not available.
UV 4 out of 12
Pollen 4.20 out of 12
Air Quality Not available.
Flu Activity Not available.
SPECI KAPF 201818Z 22006KT 4SM RA BR SCT022 BKN075 OVC110 26/23 A2992 RMK AO2 P0013 T02560233 $

More Conditions Fewer Conditions

Pressure 29.92 in
Visibility 4.0 miles
Clouds Scattered Clouds 2200 ft
Mostly Cloudy 7500 ft
Overcast 11000 ft
Dew Point 74 °F
Humidity 87%
Rainfall 0.05 in
Snow Depth Not available.
UV 4 out of 12
Pollen 4.20 out of 12
Air Quality Not available.
Flu Activity Not available.
SPECI KAPF 201818Z 22006KT 4SM RA BR SCT022 BKN075 OVC110 26/23 A2992 RMK AO2 P0013 T02560233 $

More Conditions Fewer Conditions

10-Day Weather Forecast

Almanac

Astronomy

Sep. 20, 2014 Rise Set
Actual Time 7:16 AM EDT 7:27 PM EDT
Civil Twilight 6:52 AM EDT 7:50 PM EDT
Nautical Twilight 6:25 AM EDT 8:17 PM EDT
Astronomical Twilight 5:58 AM EDT 8:44 PM EDT
Moon 4:09 AM EDT 5:16 PM EDT
Length of Visible Light 12h 57m
Length of Day
12h 10m
Tomorrow will be 1m 33s shorter.
Waning Crescent, 11% of the Moon is Illuminated
Today
Waning Crescent
Sep 24
New
Oct 1
First Quarter
Oct 8
Full
Oct 15
Last Quarter

Today's Extremes

State Highs State Lows

Community

WunderPhotos

Upload Photos

1,754,921 photos uploaded!

Nearby

Snow Depth

Station Depth Elevation
No new snow has been reported.

Earthquake Activity

City Distance Mag. Time & Date
No recent earthquake activity has been reported nearby.
Minimum magnitude displayed is 2.5.

Coastal Water Temperatures

Place Temperature
No Stations Reporting

Nearby Weather Stations